Mankato, Kansas
Current Conditions -  °F | °C
As of 3:55 AM on Wednesday 22 Oct 2014 (Local Time) from KCNK Reporting Station
Clear Clear  
Wind Chill: 60°   Ceiling: Unl
Heat Index: 60°   Visibility: 10mi
Dew Point: 56°   Wind: 14mph
Humidity: 86%   Direction: 160°SSE
Pressure: 30.03"   Gusts: NA
Location:  39.79°N, 98.21°W
Report Text: KCNK 220855Z AUTO 16012KT 10SM CLR 16/13 A3003 RMK AO2 SLP159 T01560133 51010
Loading
Personal Weather Stations






























Interactive Weather Map
Tropical Storm Tracking
New forecast layout! Learn more

10-Day Weather Forecast

Advertisements
Track Severe Weather on mobile